Portada
METAR-TAF:

METAR-TAF

Aeroports :

Kiritimati, Kiribati

latitud: 01-59N, longitud: 157-29W, altitud: 3 m

Observació

L'informe es va fer fa 1 hora i 14 minuts, a les 20:00 UTC
Vent 10 kt del Est/Sud-Est
Temperatura 31°C
Humitat 66%
Pressió 1010 hPa
Visibilitat 10 km o més
Escasses núvols a una alçada de 2000 ft
Núvols disperses a una alçada de 4000 ft

METAR: PLCH 282000Z 11010KT 9999 FEW020 SCT040 31/24 Q1010

Hora: 11:14 (21:14 UTC)

Pronòstic

L'informe es va fer fa 4 hores i 13 minuts, a les 17:01 UTC
Pronòstic vàlid del 28 a les 18 UTC al 29 a les 18 UTC
Vent 8 kt del Est/Sud-Est
Visibilitat 10 km o més
Escasses núvols a una alçada de 2000 ft

TAF: PLCH 281701Z 2818/2918 11008KT 9999 FEW020

Observacions i pronòstics meteorològics de més de 4000 aeroports (METAR i TAF).

Les estacions disponibles són els punts grocs i vermells al mapa.

Posi el ratolí al punt desitjat per veure el nom de l'estació.

Feu clic per veure les observacions i els pronòstics meteorològics.

Per canviar el mapa: feu clic els botons verds amb una creu de color negre per apropar; al botó verd amb un guió per allunyar la imatge; o en les fletxes verdes per a mapes adjacents.


METAR-TAF: